createdAt,value
2022-09-16T00:01:32.226Z,4.20
2022-09-16T00:04:00.627Z,3.80
2022-09-16T00:06:30.911Z,4.07
2022-09-16T00:09:01.930Z,3.53
2022-09-16T00:11:34.350Z,3.15
2022-09-16T00:14:02.941Z,3.28
2022-09-16T00:16:32.861Z,3.30
2022-09-16T00:19:03.256Z,3.10
2022-09-16T00:21:32.399Z,3.50
2022-09-16T00:24:00.705Z,3.35
2022-09-16T00:26:29.887Z,3.45
2022-09-16T00:28:58.206Z,3.53
2022-09-16T00:31:26.646Z,3.50
2022-09-16T00:33:56.414Z,3.70
2022-09-16T00:36:24.759Z,3.22
2022-09-16T00:38:54.927Z,3.72
2022-09-16T00:41:26.204Z,3.35
2022-09-16T00:43:58.296Z,3.92
2022-09-16T00:46:37.774Z,3.53
2022-09-16T00:49:14.052Z,3.40
2022-09-16T00:51:43.348Z,3.42
2022-09-16T00:54:12.560Z,3.50
2022-09-16T00:56:44.431Z,2.95
2022-09-16T00:59:18.303Z,3.58
2022-09-16T01:01:47.512Z,3.30
2022-09-16T01:04:22.413Z,3.78
2022-09-16T01:06:51.189Z,3.00
2022-09-16T01:09:23.349Z,3.05
2022-09-16T01:11:51.812Z,3.42
2022-09-16T01:14:40.208Z,3.75
2022-09-16T01:17:20.458Z,3.10
2022-09-16T01:20:33.482Z,3.20
2022-09-16T01:23:42.710Z,3.30
2022-09-16T01:26:35.030Z,4.05
2022-09-16T01:29:42.849Z,3.47
2022-09-16T01:32:20.928Z,3.40
2022-09-16T01:34:56.030Z,4.00
2022-09-16T01:37:37.193Z,3.50
2022-09-16T01:40:12.000Z,3.88
2022-09-16T01:42:48.303Z,3.72
2022-09-16T01:45:22.239Z,4.15
2022-09-16T01:47:59.658Z,3.30
2022-09-16T01:50:33.112Z,3.33
2022-09-16T01:53:11.608Z,3.58
2022-09-16T01:55:44.483Z,4.10
2022-09-16T01:58:20.529Z,3.20
2022-09-16T02:00:52.693Z,2.95
2022-09-16T02:03:26.511Z,3.88
2022-09-16T02:05:59.788Z,3.95
2022-09-16T02:08:35.310Z,3.80
2022-09-16T02:11:08.824Z,3.45
2022-09-16T02:13:41.082Z,3.42
2022-09-16T02:16:13.751Z,3.00
2022-09-16T02:18:48.606Z,3.05
2022-09-16T02:21:18.997Z,3.13
2022-09-16T02:23:52.441Z,3.10
2022-09-16T02:26:25.566Z,3.00
2022-09-16T02:28:55.965Z,3.25
2022-09-16T02:31:31.243Z,2.90
2022-09-16T02:34:04.310Z,3.55
2022-09-16T02:36:33.774Z,3.42
2022-09-16T02:39:08.567Z,3.10
2022-09-16T02:41:37.664Z,3.58
2022-09-16T02:44:06.565Z,3.38
2022-09-16T02:46:43.302Z,3.40
2022-09-16T02:49:19.871Z,2.97
2022-09-16T02:51:57.535Z,3.55
2022-09-16T02:54:34.247Z,3.20
2022-09-16T02:57:02.540Z,3.83
2022-09-16T02:59:30.769Z,3.15
2022-09-16T03:02:01.257Z,3.28
2022-09-16T03:04:31.393Z,3.28
2022-09-16T03:06:59.681Z,2.95
2022-09-16T03:09:29.871Z,3.28
2022-09-16T03:12:22.569Z,3.13
2022-09-16T03:15:23.588Z,4.07
2022-09-16T03:18:20.115Z,3.83
2022-09-16T03:21:01.613Z,3.45
2022-09-16T03:23:45.357Z,3.55
2022-09-16T03:26:26.349Z,3.60
2022-09-16T03:29:05.964Z,3.20
2022-09-16T03:31:39.958Z,3.90
2022-09-16T03:34:16.386Z,3.92
2022-09-16T03:36:51.064Z,3.50
2022-09-16T03:39:22.189Z,3.90
2022-09-16T03:41:52.260Z,3.80
2022-09-16T03:44:20.526Z,4.20
2022-09-16T03:46:49.226Z,3.65
2022-09-16T03:49:17.626Z,4.00
2022-09-16T03:51:47.157Z,3.20
2022-09-16T03:54:15.545Z,3.97
2022-09-16T03:56:43.756Z,3.97
2022-09-16T03:59:11.989Z,3.95
2022-09-16T04:01:40.371Z,4.03
2022-09-16T04:04:08.817Z,3.30
2022-09-16T04:06:37.163Z,3.40
2022-09-16T04:09:08.380Z,3.42
2022-09-16T04:11:37.014Z,3.33
2022-09-16T04:14:05.690Z,3.10
2022-09-16T04:16:34.668Z,3.70
2022-09-16T04:19:02.942Z,3.38
2022-09-16T04:21:31.238Z,2.90
2022-09-16T04:24:00.146Z,3.05
2022-09-16T04:26:29.901Z,3.80
2022-09-16T04:28:58.127Z,3.50
2022-09-16T04:31:26.443Z,3.53
2022-09-16T04:33:54.664Z,3.63
2022-09-16T04:36:22.980Z,3.80
2022-09-16T04:38:51.211Z,3.22
2022-09-16T04:41:21.397Z,3.83
2022-09-16T04:43:56.074Z,3.45
2022-09-16T04:46:25.812Z,3.83
2022-09-16T04:48:57.690Z,3.92
2022-09-16T04:51:28.143Z,3.78
2022-09-16T04:53:57.252Z,4.07
2022-09-16T04:56:28.701Z,4.03
2022-09-16T04:59:02.209Z,3.70
2022-09-16T05:01:33.548Z,3.45
2022-09-16T05:04:05.090Z,3.67
2022-09-16T05:06:37.168Z,4.15
2022-09-16T05:09:05.940Z,3.97
2022-09-16T05:11:37.027Z,4.03
2022-09-16T05:14:09.793Z,3.97
2022-09-16T05:16:38.125Z,3.90
2022-09-16T05:19:06.347Z,4.15
2022-09-16T05:21:37.180Z,4.55
2022-09-16T05:24:08.744Z,4.18
2022-09-16T05:26:39.827Z,4.28
2022-09-16T05:29:15.553Z,3.70
2022-09-16T05:31:47.298Z,3.97
2022-09-16T05:34:18.927Z,3.88
2022-09-16T05:36:49.463Z,3.72
2022-09-16T05:39:23.152Z,3.78
2022-09-16T05:41:56.882Z,3.25
2022-09-16T05:44:28.193Z,3.53
2022-09-16T05:46:59.499Z,3.75
2022-09-16T05:49:27.722Z,3.97
2022-09-16T05:51:56.347Z,3.35
2022-09-16T05:54:25.381Z,3.28
2022-09-16T05:56:54.357Z,3.20
2022-09-16T05:59:23.850Z,3.47
2022-09-16T06:01:54.660Z,3.30
2022-09-16T06:04:22.972Z,3.65
2022-09-16T06:06:51.229Z,4.00
2022-09-16T06:09:22.276Z,4.07
2022-09-16T06:11:55.473Z,4.60
2022-09-16T06:14:26.600Z,4.07
2022-09-16T06:16:56.338Z,4.50
2022-09-16T06:19:24.896Z,3.93
2022-09-16T06:21:53.096Z,3.55
2022-09-16T06:24:22.330Z,4.35
2022-09-16T06:26:50.595Z,4.15
2022-09-16T06:29:19.009Z,3.75
2022-09-16T06:31:47.251Z,3.88
2022-09-16T06:34:19.193Z,3.70
2022-09-16T06:36:48.029Z,3.80
2022-09-16T06:39:18.178Z,3.88
2022-09-16T06:41:46.859Z,3.40
2022-09-16T06:44:15.063Z,3.50
2022-09-16T06:46:44.144Z,3.67
2022-09-16T06:49:13.105Z,3.60
2022-09-16T06:51:43.543Z,3.33
2022-09-16T06:54:13.039Z,2.92
2022-09-16T06:56:41.847Z,3.20
2022-09-16T06:59:11.057Z,3.70
2022-09-16T07:01:39.538Z,3.40
2022-09-16T07:04:10.462Z,3.22
2022-09-16T07:07:10.004Z,2.92
2022-09-16T07:09:28.904Z,4.10
2022-09-16T07:11:57.164Z,3.63
2022-09-16T07:14:25.618Z,3.78
2022-09-16T07:16:53.937Z,3.42
2022-09-16T07:19:22.756Z,3.70
2022-09-16T07:21:50.984Z,3.20
2022-09-16T07:24:19.701Z,3.13
2022-09-16T07:26:49.252Z,3.63
2022-09-16T07:29:20.499Z,2.92
2022-09-16T07:31:49.185Z,3.45
2022-09-16T07:34:17.680Z,3.30
2022-09-16T07:36:49.073Z,3.00
2022-09-16T07:39:20.388Z,3.15
2022-09-16T07:41:50.298Z,3.42
2022-09-16T07:44:20.651Z,3.60
2022-09-16T07:46:51.222Z,3.97
2022-09-16T07:49:20.027Z,3.95
2022-09-16T07:51:48.995Z,3.30
2022-09-16T07:54:19.834Z,3.75
2022-09-16T07:56:49.474Z,3.92
2022-09-16T07:59:20.915Z,3.95
2022-09-16T08:01:50.717Z,3.92
2022-09-16T08:04:20.539Z,3.38
2022-09-16T08:06:48.890Z,4.47
2022-09-16T08:12:11.051Z,3.72
2022-09-16T08:14:39.595Z,4.20
2022-09-16T08:17:07.988Z,3.85
2022-09-16T08:19:38.379Z,3.20
2022-09-16T08:22:06.872Z,4.05
2022-09-16T08:24:35.193Z,3.13
2022-09-16T08:27:03.420Z,3.13
2022-09-16T08:29:33.268Z,3.53
2022-09-16T08:32:01.573Z,3.13
2022-09-16T08:34:29.847Z,3.42
2022-09-16T08:36:58.095Z,3.75
2022-09-16T08:39:26.420Z,3.53
2022-09-16T08:42:25.636Z,3.83
2022-09-16T08:45:09.597Z,3.92
2022-09-16T08:47:48.912Z,3.35
2022-09-16T08:50:30.684Z,4.05
2022-09-16T08:53:04.812Z,3.28
2022-09-16T08:55:39.427Z,3.42
2022-09-16T08:58:14.691Z,3.08
2022-09-16T09:00:47.546Z,3.42
2022-09-16T09:03:23.643Z,3.10
2022-09-16T09:05:54.458Z,3.33
2022-09-16T09:08:35.841Z,3.35
2022-09-16T09:11:11.941Z,3.67
2022-09-16T09:14:07.007Z,3.67
2022-09-16T09:16:46.718Z,3.42
2022-09-16T09:19:34.699Z,3.97
2022-09-16T09:22:26.120Z,3.53
2022-09-16T09:25:14.942Z,4.10
2022-09-16T09:27:53.981Z,3.45
2022-09-16T09:30:24.433Z,2.90
2022-09-16T09:33:41.324Z,3.08
2022-09-16T09:36:24.440Z,3.55
2022-09-16T09:39:11.176Z,3.08
2022-09-16T09:41:45.163Z,4.00
2022-09-16T09:44:43.210Z,3.22
2022-09-16T09:47:17.411Z,3.70
2022-09-16T09:49:54.313Z,3.55
2022-09-16T09:52:30.024Z,3.10
2022-09-16T09:55:16.383Z,3.42
2022-09-16T09:58:15.537Z,2.92
2022-09-16T10:00:44.009Z,3.40
2022-09-16T10:03:14.932Z,3.42
2022-09-16T10:05:46.400Z,3.00
2022-09-16T10:08:25.026Z,3.15
2022-09-16T10:10:55.816Z,3.13
2022-09-16T10:13:26.591Z,3.30
2022-09-16T10:16:08.003Z,3.75
2022-09-16T10:18:36.481Z,3.47
2022-09-16T10:21:09.136Z,3.90
2022-09-16T10:23:39.260Z,3.42
2022-09-16T10:26:21.025Z,3.58
2022-09-16T10:29:02.337Z,3.40
2022-09-16T10:31:37.408Z,3.50
2022-09-16T10:34:16.392Z,3.83
2022-09-16T10:36:46.432Z,3.38
2022-09-16T10:39:26.001Z,3.80
2022-09-16T10:41:54.389Z,3.63
2022-09-16T10:44:27.159Z,3.30
2022-09-16T10:46:58.358Z,3.08
2022-09-16T10:49:38.383Z,3.00
2022-09-16T10:52:18.314Z,3.63
2022-09-16T10:54:47.224Z,3.90
2022-09-16T10:57:26.168Z,3.17
2022-09-16T11:00:00.512Z,3.05
2022-09-16T11:03:08.587Z,3.03
2022-09-16T11:05:50.983Z,3.60
2022-09-16T11:08:40.695Z,4.00
2022-09-16T11:11:20.021Z,3.40
2022-09-16T11:13:58.434Z,3.00
2022-09-16T11:16:55.109Z,3.05
2022-09-16T11:19:33.443Z,3.17
2022-09-16T11:22:15.614Z,2.95
2022-09-16T11:25:05.587Z,3.33
2022-09-16T11:27:53.526Z,3.17
2022-09-16T11:30:23.669Z,3.72
2022-09-16T11:33:20.463Z,3.15
2022-09-16T11:36:21.530Z,3.40
2022-09-16T11:39:05.490Z,3.50
2022-09-16T11:41:45.751Z,3.80
2022-09-16T11:44:35.478Z,3.65
2022-09-16T11:47:30.081Z,4.00
2022-09-16T11:50:15.365Z,3.58
2022-09-16T11:53:06.352Z,3.50
2022-09-16T11:55:50.476Z,3.63
2022-09-16T11:58:34.615Z,3.88
2022-09-16T12:01:13.033Z,4.25
2022-09-16T12:03:48.516Z,4.38
2022-09-16T12:06:21.844Z,3.85
2022-09-16T12:08:58.514Z,4.35
2022-09-16T12:11:33.921Z,4.15
2022-09-16T12:14:13.809Z,4.07
2022-09-16T12:16:49.152Z,4.53
2022-09-16T12:19:24.450Z,3.95
2022-09-16T12:21:58.459Z,3.35
2022-09-16T12:24:37.632Z,3.42
2022-09-16T12:27:12.829Z,3.30
2022-09-16T12:29:50.713Z,3.40
2022-09-16T12:32:26.593Z,3.55
2022-09-16T12:34:59.636Z,3.90
2022-09-16T12:37:36.405Z,4.22
2022-09-16T12:40:07.873Z,3.47
2022-09-16T12:43:17.787Z,3.75
2022-09-16T12:46:22.933Z,2.90
2022-09-16T12:49:47.827Z,3.30
2022-09-16T12:53:01.502Z,3.25
2022-09-16T12:55:45.827Z,3.67
2022-09-16T12:58:50.928Z,3.85
2022-09-16T13:01:26.168Z,3.40
2022-09-16T13:03:58.799Z,3.60
2022-09-16T13:06:32.366Z,3.45
2022-09-16T13:09:19.916Z,3.78
2022-09-16T13:14:48.800Z,3.05
2022-09-16T13:17:30.643Z,3.40
2022-09-16T13:20:08.550Z,4.00
2022-09-16T13:22:46.336Z,3.45
2022-09-16T13:25:24.277Z,3.70
2022-09-16T13:27:59.724Z,3.83
2022-09-16T13:30:33.204Z,3.72
2022-09-16T13:33:26.490Z,3.90
2022-09-16T13:36:18.556Z,4.20
2022-09-16T13:38:49.832Z,3.97
2022-09-16T13:41:33.393Z,3.38
2022-09-16T13:44:02.636Z,3.80
2022-09-16T13:46:34.847Z,3.70
2022-09-16T13:49:18.013Z,3.92
2022-09-16T13:51:48.306Z,3.75
2022-09-16T13:54:43.258Z,3.72
2022-09-16T13:57:39.434Z,4.22
2022-09-16T14:00:15.878Z,3.90
2022-09-16T14:03:38.105Z,3.85
2022-09-16T14:06:46.681Z,4.00
2022-09-16T14:09:30.398Z,4.18
2022-09-16T14:12:07.919Z,4.20
2022-09-16T14:14:53.666Z,4.07
2022-09-16T14:17:27.586Z,3.53
2022-09-16T14:20:00.672Z,4.38
2022-09-16T14:22:31.711Z,4.30
2022-09-16T14:25:06.622Z,3.80
2022-09-16T14:27:44.935Z,4.57
2022-09-16T14:30:18.116Z,4.35
2022-09-16T14:32:47.896Z,3.92
2022-09-16T14:35:20.953Z,3.60
2022-09-16T14:37:55.320Z,3.30
2022-09-16T14:40:26.393Z,3.53
2022-09-16T14:42:59.494Z,4.32
2022-09-16T14:45:30.396Z,4.07
2022-09-16T14:48:04.155Z,3.83
2022-09-16T14:50:37.367Z,4.57
2022-09-16T14:53:24.246Z,4.45
2022-09-16T14:55:55.956Z,4.20
2022-09-16T14:58:27.207Z,3.80
2022-09-16T15:01:00.766Z,4.20
2022-09-16T15:03:38.911Z,4.18
2022-09-16T15:06:13.066Z,3.33
2022-09-16T15:08:47.684Z,4.13
2022-09-16T15:11:43.639Z,4.57
2022-09-16T15:14:11.295Z,4.30
2022-09-16T15:16:45.215Z,4.22
2022-09-16T15:19:22.343Z,4.35
2022-09-16T15:21:51.251Z,3.95
2022-09-16T15:24:28.332Z,4.43
2022-09-16T15:26:57.527Z,3.85
2022-09-16T15:29:32.797Z,5.05
2022-09-16T15:32:19.451Z,4.13
2022-09-16T15:34:49.870Z,4.20
2022-09-16T15:37:35.624Z,4.28
2022-09-16T15:40:21.659Z,3.60
2022-09-16T15:43:02.581Z,4.72
2022-09-16T15:48:02.705Z,4.28
2022-09-16T15:50:40.103Z,4.85
2022-09-16T15:53:12.858Z,4.13
2022-09-16T15:55:54.527Z,4.68
2022-09-16T15:58:39.536Z,3.88
2022-09-16T16:01:13.925Z,3.92
2022-09-16T16:03:57.682Z,4.70
2022-09-16T16:06:51.763Z,4.07
2022-09-16T16:09:44.419Z,4.40
2022-09-16T16:12:18.275Z,4.15
2022-09-16T16:14:47.095Z,4.20
2022-09-16T16:17:18.579Z,4.60
2022-09-16T16:19:49.461Z,4.68
2022-09-16T16:22:19.224Z,4.50
2022-09-16T16:24:47.973Z,5.15
2022-09-16T16:27:17.626Z,4.22
2022-09-16T16:29:45.979Z,4.97
2022-09-16T16:32:16.635Z,5.13
2022-09-16T16:37:40.291Z,4.68
2022-09-16T16:40:07.573Z,6.15
2022-09-16T16:42:37.358Z,5.50
2022-09-16T16:45:07.064Z,4.33
2022-09-16T16:47:35.646Z,5.77
2022-09-16T16:50:04.261Z,6.40
2022-09-16T16:52:33.087Z,4.35
2022-09-16T16:55:01.413Z,5.38
2022-09-16T16:57:29.681Z,5.43
2022-09-16T16:59:59.320Z,4.97
2022-09-16T17:02:27.757Z,4.65
2022-09-16T17:04:56.113Z,5.70
2022-09-16T17:07:26.554Z,5.93
2022-09-16T17:09:57.088Z,4.60
2022-09-16T17:12:25.703Z,4.72
2022-09-16T17:14:54.186Z,4.93
2022-09-16T17:17:27.770Z,4.88
2022-09-16T17:19:59.590Z,4.63
2022-09-16T17:22:27.899Z,4.40
2022-09-16T17:24:56.555Z,4.10
2022-09-16T17:27:27.121Z,4.25
2022-09-16T17:29:56.065Z,4.63
2022-09-16T17:32:26.010Z,5.18
2022-09-16T17:34:54.387Z,4.68
2022-09-16T17:37:22.807Z,4.88
2022-09-16T17:39:51.182Z,5.53
2022-09-16T17:42:20.587Z,4.72
2022-09-16T17:44:49.020Z,4.90
2022-09-16T17:47:17.596Z,4.53
2022-09-16T17:49:47.427Z,4.30
2022-09-16T17:52:15.891Z,5.75
2022-09-16T17:54:44.462Z,4.78
2022-09-16T17:57:12.801Z,4.97
2022-09-16T17:59:41.175Z,4.70
2022-09-16T18:02:12.115Z,5.10
2022-09-16T18:04:43.032Z,5.15
2022-09-16T18:07:12.894Z,4.20
2022-09-16T18:09:41.315Z,5.13
2022-09-16T18:12:09.842Z,5.15
2022-09-16T18:14:38.635Z,4.40
2022-09-16T18:17:07.365Z,4.63
2022-09-16T18:19:35.935Z,5.63
2022-09-16T18:22:05.051Z,4.80
2022-09-16T18:24:34.704Z,4.90
2022-09-16T18:27:03.130Z,5.07
2022-09-16T18:29:31.671Z,5.57
2022-09-16T18:32:00.283Z,4.80
2022-09-16T18:34:33.211Z,4.93
2022-09-16T18:37:02.082Z,5.28
2022-09-16T18:39:30.525Z,5.85
2022-09-16T18:42:00.317Z,4.85
2022-09-16T18:44:28.943Z,5.88
2022-09-16T18:46:57.407Z,5.93
2022-09-16T18:49:27.106Z,5.90
2022-09-16T18:51:55.979Z,5.40
2022-09-16T18:54:28.588Z,5.30
2022-09-16T18:57:00.150Z,6.22
2022-09-16T18:59:31.131Z,5.47
2022-09-16T19:02:02.702Z,5.65
2022-09-16T19:04:34.223Z,5.55
2022-09-16T19:07:07.966Z,6.55
2022-09-16T19:09:39.824Z,6.85
2022-09-16T19:12:12.273Z,6.63
2022-09-16T19:14:41.155Z,6.35
2022-09-16T19:17:10.431Z,5.53
2022-09-16T19:19:39.054Z,5.13
2022-09-16T19:22:07.341Z,5.65
2022-09-16T19:24:37.218Z,5.40
2022-09-16T19:27:06.095Z,4.68
2022-09-16T19:29:35.710Z,5.28
2022-09-16T19:32:04.353Z,6.18
2022-09-16T19:34:32.674Z,5.45
2022-09-16T19:37:01.002Z,6.07
2022-09-16T19:39:29.383Z,5.70
2022-09-16T19:42:03.186Z,6.40
2022-09-16T19:44:32.001Z,6.80
2022-09-16T19:47:02.390Z,5.97
2022-09-16T19:49:30.810Z,5.90
2022-09-16T19:51:59.333Z,5.90
2022-09-16T19:54:27.970Z,6.55
2022-09-16T19:56:56.641Z,6.85
2022-09-16T19:59:25.242Z,5.05
2022-09-16T20:01:53.656Z,5.53
2022-09-16T20:04:23.638Z,4.57
2022-09-16T20:06:52.002Z,4.53
2022-09-16T20:09:20.802Z,4.93
2022-09-16T20:11:50.199Z,5.30
2022-09-16T20:14:21.341Z,4.70
2022-09-16T20:16:51.590Z,5.68
2022-09-16T20:19:22.027Z,5.88
2022-09-16T20:21:50.536Z,5.63
2022-09-16T20:24:23.123Z,5.65
2022-09-16T20:26:53.775Z,5.65
2022-09-16T20:31:52.666Z,5.47
2022-09-16T20:36:53.026Z,5.43
2022-09-16T20:39:22.205Z,5.70
2022-09-16T20:41:52.631Z,4.40
2022-09-16T20:44:21.162Z,5.45
2022-09-16T20:46:50.141Z,4.97
2022-09-16T20:49:24.666Z,5.00
2022-09-16T20:51:53.163Z,4.70
2022-09-16T20:54:21.537Z,4.53
2022-09-16T20:56:50.459Z,4.32
2022-09-16T20:59:20.970Z,4.10
2022-09-16T21:01:50.320Z,5.25
2022-09-16T21:04:22.102Z,4.18
2022-09-16T21:06:50.624Z,4.07
2022-09-16T21:09:20.439Z,4.88
2022-09-16T21:11:51.230Z,4.97
2022-09-16T21:14:21.731Z,4.57
2022-09-16T21:16:51.659Z,5.50
2022-09-16T21:19:20.281Z,4.68
2022-09-16T21:21:49.990Z,5.32
2022-09-16T21:24:18.956Z,4.40
2022-09-16T21:26:47.545Z,5.00
2022-09-16T21:29:18.963Z,5.00
2022-09-16T21:31:48.486Z,4.60
2022-09-16T21:34:19.492Z,4.20
2022-09-16T21:36:50.314Z,4.90
2022-09-16T21:39:20.806Z,5.03
2022-09-16T21:41:49.799Z,5.35
2022-09-16T21:44:18.893Z,4.57
2022-09-16T21:46:49.602Z,4.80
2022-09-16T21:49:23.205Z,4.88
2022-09-16T21:51:54.289Z,5.55
2022-09-16T21:54:23.599Z,4.82
2022-09-16T21:56:52.761Z,5.43
2022-09-16T21:59:21.760Z,5.10
2022-09-16T22:01:51.442Z,5.50
2022-09-16T22:04:23.186Z,4.82
2022-09-16T22:06:55.518Z,4.90
2022-09-16T22:09:26.671Z,5.13
2022-09-16T22:11:55.447Z,5.43
2022-09-16T22:14:23.835Z,5.72
2022-09-16T22:16:52.112Z,5.00
2022-09-16T22:19:21.093Z,4.90
2022-09-16T22:21:52.740Z,5.55
2022-09-16T22:24:21.501Z,5.05
2022-09-16T22:26:52.058Z,4.85
2022-09-16T22:29:20.659Z,4.88
2022-09-16T22:31:49.236Z,4.78
2022-09-16T22:34:18.035Z,5.10
2022-09-16T22:36:46.611Z,4.20
2022-09-16T22:39:19.769Z,4.55
2022-09-16T22:41:48.874Z,4.68
2022-09-16T22:44:17.181Z,4.72
2022-09-16T22:46:48.506Z,4.60
2022-09-16T22:49:18.701Z,4.97
2022-09-16T22:51:47.126Z,4.90
2022-09-16T22:54:16.971Z,5.40
2022-09-16T22:56:45.928Z,5.47
2022-09-16T22:59:19.618Z,4.60
2022-09-16T23:01:48.826Z,5.43
2022-09-16T23:04:17.262Z,4.47
2022-09-16T23:06:45.615Z,4.10
2022-09-16T23:09:16.262Z,4.97
2022-09-16T23:11:44.998Z,5.00
2022-09-16T23:14:15.927Z,4.90
2022-09-16T23:16:44.301Z,5.25
2022-09-16T23:19:13.311Z,4.90
2022-09-16T23:21:42.559Z,4.60
2022-09-16T23:24:17.002Z,4.57
2022-09-16T23:26:46.984Z,4.65
2022-09-16T23:29:18.263Z,4.28
2022-09-16T23:31:47.175Z,4.82
2022-09-16T23:34:19.067Z,4.43
2022-09-16T23:36:48.059Z,5.15
2022-09-16T23:39:19.228Z,4.82
2022-09-16T23:41:49.465Z,4.25
2022-09-16T23:44:18.203Z,4.45
2022-09-16T23:46:46.595Z,4.68
2022-09-16T23:49:20.208Z,4.55
2022-09-16T23:51:49.152Z,3.97
2022-09-16T23:54:18.832Z,5.15
2022-09-16T23:56:47.608Z,4.97
2022-09-16T23:59:16.161Z,5.10
